Time;durP1;ratioP1;P1;durP2;ratioP2;P2;SDS_P1;SDS_P2;PMS_P1;PMS_P2;Temp;Humidity;BMP_temperature;BMP_pressure;BME280_temperature;BME280_humidity;BME280_pressure;Samples;Min_cycle;Max_cycle;Signal;HPM_P1;HPM_P2
2022/04/28 00:00:32;;;;;;;10.98;7.38;;;8.30;1.00;;;8.16;68.59;102107.38;4789594;29;20759;-63
2022/04/28 00:03:01;;;;;;;9.18;7.47;;;8.30;1.00;;;8.43;68.41;102119.03;4789493;29;20218;-63
2022/04/28 00:05:30;;;;;;;11.50;6.53;;;8.40;1.00;;;8.52;67.71;102112.72;4789252;29;20218;-64
2022/04/28 00:08:00;;;;;;;9.73;7.05;;;8.50;1.00;;;8.72;67.00;102119.56;4789609;29;20635;-63
2022/04/28 00:10:29;;;;;;;11.40;8.20;;;8.70;1.00;;;8.66;66.95;102120.22;4789475;29;20255;-63
2022/04/28 00:13:00;;;;;;;9.32;7.60;;;8.70;1.00;;;8.65;66.64;102113.97;4789139;29;20218;-64
2022/04/28 00:15:31;;;;;;;13.27;7.50;;;8.70;1.00;;;8.71;66.48;102117.88;4789487;29;20256;-63
2022/04/28 00:18:00;;;;;;;11.63;7.88;;;8.70;1.00;;;8.69;66.68;102117.19;4789812;29;20205;-63
2022/04/28 00:20:29;;;;;;;14.50;7.28;;;8.70;1.00;;;8.65;66.54;102113.13;4789277;29;20202;-64
2022/04/28 00:22:58;;;;;;;11.32;8.00;;;8.70;1.00;;;8.57;66.74;102115.75;4789183;29;20226;-62
2022/04/28 00:25:27;;;;;;;8.77;6.97;;;8.70;1.00;;;8.58;66.88;102114.75;4789259;29;20281;-64
2022/04/28 00:27:56;;;;;;;10.60;6.40;;;8.60;1.00;;;8.61;66.48;102109.91;4789417;29;20179;-63
2022/04/28 00:30:25;;;;;;;10.65;7.57;;;8.60;1.00;;;8.56;66.47;102114.09;4788136;30;20555;-64
2022/04/28 00:32:55;;;;;;;11.88;7.18;;;8.70;1.00;;;8.44;66.95;102107.25;4817681;29;20766;-63
2022/04/28 00:35:24;;;;;;;10.68;7.32;;;8.60;1.00;;;8.47;66.87;102117.75;4789115;29;20685;-64
2022/04/28 00:37:53;;;;;;;10.73;7.28;;;8.60;1.00;;;8.40;67.27;102113.97;4787999;30;20197;-63
2022/04/28 00:40:23;;;;;;;9.80;8.45;;;8.50;1.00;;;8.48;67.09;102117.56;4817955;29;20218;-63
2022/04/28 00:43:18;;;;;;;9.18;6.28;;;8.50;1.00;;;8.37;67.15;102119.69;4788850;29;20214;-63
2022/04/28 00:45:40;;;;;;;13.80;7.60;;;8.50;1.00;;;8.36;67.67;102118.00;4818135;29;20202;-68
2022/04/28 00:51:02;;;;;;;12.40;8.90;;;8.40;1.00;;;8.38;67.70;102133.00;4769425;30;20206;-64
2022/04/28 00:53:36;;;;;;;7.95;5.68;;;8.40;1.00;;;8.29;67.78;102133.91;4789099;29;20209;-63
2022/04/28 00:56:09;;;;;;;13.18;7.32;;;8.40;1.00;;;8.32;67.59;102130.94;4789023;29;20202;-63
2022/04/28 00:58:40;;;;;;;11.30;7.95;;;8.40;1.00;;;8.29;67.87;102131.22;4789328;29;20598;-64
2022/04/28 01:01:09;;;;;;;7.20;6.50;;;8.40;1.00;;;8.13;68.40;102126.53;4818167;29;20225;-64
2022/04/28 01:03:40;;;;;;;16.85;7.25;;;8.30;1.00;;;8.08;68.38;102131.59;4789129;29;20265;-63
2022/04/28 01:06:10;;;;;;;12.63;7.43;;;8.20;1.00;;;8.05;68.73;102129.19;4789290;29;20186;-62
2022/04/28 01:08:39;;;;;;;13.05;7.25;;;8.20;1.00;;;7.91;69.23;102128.88;4817640;29;20202;-63
2022/04/28 01:11:08;;;;;;;13.80;7.18;;;8.10;1.00;;;7.97;68.87;102133.66;4817768;29;20724;-63
2022/04/28 01:13:51;;;;;;;8.00;6.30;;;8.10;1.00;;;7.75;69.73;102141.19;4817673;29;20258;-64
2022/04/28 01:16:27;;;;;;;7.97;6.15;;;7.90;1.00;;;7.70;69.99;102142.66;4787604;30;20525;-64
2022/04/28 01:18:58;;;;;;;6.85;5.32;;;7.80;1.00;;;7.78;69.54;102129.28;4817542;29;20637;-64
2022/04/28 01:21:30;;;;;;;10.70;6.95;;;7.80;1.00;;;7.57;70.35;102143.03;4817473;29;20226;-64
2022/04/28 01:24:05;;;;;;;8.18;6.03;;;7.70;1.00;;;7.59;70.45;102135.66;4818269;29;20275;-63
2022/04/28 01:26:36;;;;;;;9.25;6.68;;;7.70;1.00;;;7.64;69.78;102136.06;4789275;29;20274;-63
2022/04/28 01:29:04;;;;;;;9.85;6.20;;;7.70;1.00;;;7.48;70.51;102145.78;4789075;29;20208;-62
2022/04/28 01:31:33;;;;;;;12.77;8.68;;;7.60;1.00;;;7.52;70.39;102139.09;4787581;30;20711;-62
2022/04/28 01:34:05;;;;;;;8.95;7.18;;;7.60;1.00;;;7.37;70.60;102136.94;4817588;29;20202;-62
2022/04/28 01:36:36;;;;;;;15.70;7.88;;;7.50;1.00;;;7.40;70.94;102143.88;4817543;29;20232;-63
2022/04/28 01:39:07;;;;;;;15.35;6.05;;;7.50;1.00;;;7.45;70.72;102154.19;4817383;29;20202;-63
2022/04/28 01:41:37;;;;;;;10.15;6.07;;;7.50;1.00;;;7.47;71.16;102149.47;4817481;29;20254;-63
2022/04/28 01:44:07;;;;;;;11.68;6.43;;;7.50;1.00;;;7.38;71.00;102144.00;4788366;29;20199;-63
2022/04/28 01:46:36;;;;;;;10.68;7.15;;;7.50;1.00;;;7.50;70.75;102147.34;4817258;29;20198;-63
2022/04/28 01:49:29;;;;;;;8.93;7.15;;;7.60;1.00;;;7.72;69.48;102146.91;4787263;30;20198;-63
2022/04/28 01:55:31;;;;;;;8.52;6.47;;;7.60;1.00;;;7.46;70.33;102145.94;4788130;30;20272;-63
2022/04/28 01:58:18;;;;;;;7.50;6.40;;;7.50;1.00;;;7.31;70.94;102142.09;4788135;30;20217;-63
2022/04/28 02:01:08;;;;;;;8.68;6.40;;;7.50;1.00;;;7.39;70.44;102153.78;4788296;29;20281;-64
2022/04/28 02:03:37;;;;;;;8.57;5.88;;;7.40;1.00;;;7.54;69.80;102158.66;4817408;29;20269;-64
2022/04/28 02:06:06;;;;;;;9.35;6.00;;;7.50;1.00;;;7.50;70.13;102155.44;4817251;29;20672;-64
2022/04/28 02:08:36;;;;;;;11.38;6.43;;;7.50;1.00;;;7.42;70.05;102150.78;4788619;29;20194;-63
2022/04/28 02:11:05;;;;;;;8.65;6.90;;;7.50;1.00;;;7.36;69.78;102146.00;4817222;29;20226;-63
2022/04/28 02:14:06;;;;;;;7.40;6.07;;;7.50;1.00;;;7.37;70.21;102145.00;4806247;29;20210;-63
2022/04/28 02:16:55;;;;;;;10.38;5.63;;;7.40;1.00;;;7.21;70.57;102136.72;4804910;29;20230;-63
2022/04/28 02:19:28;;;;;;;9.73;7.70;;;7.40;1.00;;;7.05;70.86;102144.63;4817051;29;20263;-64
2022/04/28 02:21:56;;;;;;;6.85;5.97;;;7.30;1.00;;;7.02;71.33;102144.91;4816774;29;20221;-63
2022/04/28 02:24:26;;;;;;;8.70;6.22;;;7.20;1.00;;;7.14;71.55;102145.56;4817092;29;20213;-63
2022/04/28 02:26:55;;;;;;;10.70;5.82;;;7.30;1.00;;;7.01;71.46;102143.22;4816754;29;20201;-63
2022/04/28 02:29:24;;;;;;;10.18;7.07;;;7.20;1.00;;;7.01;71.48;102145.06;4819271;29;20202;-63
2022/04/28 02:31:53;;;;;;;8.25;6.35;;;7.20;1.00;;;6.99;71.34;102139.84;4817857;29;20309;-63
2022/04/28 02:34:22;;;;;;;7.22;6.20;;;7.20;1.00;;;7.08;70.72;102140.78;4786820;30;20571;-62
2022/04/28 02:36:53;;;;;;;7.30;6.55;;;7.20;1.00;;;7.00;71.12;102138.84;4816623;29;20233;-62
2022/04/28 02:39:22;;;;;;;8.98;6.80;;;7.20;1.00;;;6.93;71.34;102143.09;4816877;29;20206;-63
2022/04/28 02:41:54;;;;;;;10.27;6.38;;;7.10;1.00;;;6.84;71.37;102139.47;4818298;29;20256;-63
2022/04/28 02:44:23;;;;;;;9.98;7.50;;;7.10;1.00;;;6.78;71.51;102139.19;4789111;29;20205;-63
2022/04/28 02:46:51;;;;;;;9.60;6.13;;;7.00;1.00;;;6.69;71.78;102140.09;4816621;29;20613;-63
2022/04/28 02:49:26;;;;;;;6.97;6.28;;;6.90;1.00;;;6.67;71.99;102142.94;4816870;29;20213;-63
2022/04/28 02:51:56;;;;;;;9.88;6.38;;;6.90;1.00;;;6.69;72.05;102140.09;4785928;30;20225;-63
2022/04/28 02:54:27;;;;;;;11.10;7.05;;;6.90;1.00;;;6.76;71.75;102141.22;4816217;29;20215;-64
2022/04/28 02:56:58;;;;;;;8.25;5.80;;;6.90;1.00;;;6.80;71.57;102147.97;4816200;29;20241;-63
2022/04/28 02:59:26;;;;;;;11.32;7.43;;;6.90;1.00;;;6.73;71.65;102141.50;4787049;29;20680;-62
2022/04/28 03:01:55;;;;;;;9.18;6.65;;;6.90;1.00;;;6.84;71.75;102149.38;4815935;29;20279;-62
2022/04/28 03:04:25;;;;;;;11.93;7.10;;;6.90;6.90;;;6.67;71.90;102142.09;4816178;29;20228;-63
2022/04/28 03:12:37;;;;;;;8.77;5.80;;;6.90;4.50;;;6.66;71.20;102151.16;4800566;29;20291;-62
2022/04/28 03:15:14;;;;;;;9.50;6.95;;;6.80;7.40;;;6.68;71.33;102151.88;4800947;29;20202;-63
2022/04/28 03:17:43;;;;;;;10.80;6.25;;;6.80;13.20;;;6.82;70.94;102152.25;4815615;29;20206;-63
2022/04/28 03:20:12;;;;;;;9.80;6.78;;;6.90;70.20;;;6.73;70.98;102146.91;4815616;29;20206;-63
2022/04/28 03:22:41;;;;;;;11.20;6.90;;;6.90;1.00;;;6.67;71.54;102150.16;4786623;29;20761;-64
2022/04/28 03:25:10;;;;;;;10.60;5.55;;;6.90;1.00;;;6.67;71.51;102152.84;4786469;29;20671;-64
2022/04/28 03:27:40;;;;;;;10.77;6.28;;;6.80;1.00;;;6.53;71.55;102149.59;4785128;29;20676;-64
2022/04/28 03:30:11;;;;;;;10.23;6.13;;;6.80;1.00;;;6.69;71.11;102153.53;4815684;29;20220;-64
2022/04/28 03:33:06;;;;;;;11.80;7.40;;;6.80;1.00;;;6.57;71.42;102154.72;4788729;29;20226;-62
2022/04/28 03:35:34;;;;;;;11.50;6.97;;;6.70;1.00;;;6.46;71.84;102156.56;4785207;29;20224;-63
2022/04/28 03:38:03;;;;;;;9.32;7.10;;;6.70;1.00;;;6.52;71.75;102155.16;4815457;29;20198;-63
2022/04/28 03:40:33;;;;;;;9.57;6.75;;;6.60;1.00;;;6.44;71.19;102158.56;4815362;29;20230;-63
2022/04/28 03:43:04;;;;;;;10.05;7.28;;;6.60;1.00;;;6.36;71.88;102155.75;4814886;29;20287;-64
2022/04/28 03:45:33;;;;;;;5.97;5.15;;;6.60;1.00;;;6.34;72.10;102157.72;4815544;29;20194;-64
2022/04/28 03:48:09;;;;;;;10.18;7.70;;;6.50;1.00;;;6.49;71.82;102161.66;4815025;29;20198;-64
2022/04/28 03:50:39;;;;;;;11.45;6.78;;;6.60;1.00;;;6.34;71.91;102163.09;4815445;29;20265;-63
2022/04/28 03:53:09;;;;;;;7.55;5.93;;;6.50;1.00;;;6.26;72.38;102165.66;4800217;29;20222;-62
2022/04/28 03:55:38;;;;;;;16.88;10.80;;;6.40;1.00;;;6.23;72.36;102171.34;4815336;29;20868;-63
2022/04/28 03:58:09;;;;;;;11.05;7.03;;;6.40;1.00;;;6.29;72.75;102172.59;4799913;29;20202;-63
2022/04/28 04:00:37;;;;;;;7.95;7.15;;;6.40;1.00;;;6.24;72.73;102183.78;4786260;29;20198;-63
2022/04/28 04:03:12;;;;;;;9.32;7.78;;;6.40;1.00;;;6.25;72.78;102184.63;4814943;29;20722;-64
2022/04/28 04:05:41;;;;;;;11.85;8.10;;;6.40;1.00;;;6.28;72.72;102179.81;4814984;29;20639;-64
2022/04/28 04:08:10;;;;;;;10.48;7.45;;;6.40;1.00;;;6.38;72.71;102180.66;4786065;29;20205;-64
2022/04/28 04:10:50;;;;;;;10.10;7.53;;;6.40;1.00;;;6.51;72.67;102185.72;4786521;29;20189;-64
2022/04/28 04:13:20;;;;;;;10.25;7.57;;;6.50;1.00;;;6.53;72.27;102183.75;4786083;29;20626;-63
2022/04/28 04:15:52;;;;;;;11.40;6.68;;;6.50;1.00;;;6.60;71.69;102184.00;4784818;30;20206;-64
2022/04/28 04:18:23;;;;;;;14.45;6.65;;;6.60;1.00;;;6.69;71.34;102186.66;4786005;29;20183;-64
2022/04/28 04:20:55;;;;;;;11.43;7.70;;;6.70;1.00;;;6.79;70.59;102194.72;4784649;30;20294;-64
2022/04/28 04:23:24;;;;;;;12.02;8.50;;;6.80;1.00;;;7.02;70.04;102190.66;4785704;29;20194;-64
2022/04/28 04:25:52;;;;;;;12.15;6.05;;;6.90;1.00;;;7.23;69.17;102190.44;4815033;29;20206;-64
2022/04/28 04:28:25;;;;;;;11.70;8.70;;;7.00;1.00;;;7.75;68.00;102199.63;4814847;29;20202;-64
2022/04/28 04:34:00;;;;;;;11.75;7.38;;;7.60;1.00;;;9.45;62.17;102193.66;4799522;29;20696;-64
2022/04/28 04:36:29;;;;;;;9.25;6.93;;;8.00;1.00;;;10.37;59.33;102198.06;4815867;29;20222;-63
2022/04/28 04:38:59;;;;;;;11.25;7.90;;;8.70;1.00;;;10.71;57.78;102201.44;4787582;30;20269;-66
2022/04/28 04:41:31;;;;;;;7.53;6.57;;;9.10;1.00;;;11.12;56.12;102195.94;4817846;29;20286;-63
2022/04/28 04:44:01;;;;;;;11.30;6.78;;;9.50;1.00;;;11.08;55.52;102205.44;4817685;29;20206;-64
2022/04/28 04:46:29;;;;;;;9.35;6.15;;;9.80;1.00;;;11.38;55.09;102201.06;4817847;29;20225;-63
2022/04/28 04:49:31;;;;;;;7.05;5.70;;;9.90;1.00;;;11.77;54.17;102207.34;4819886;29;20301;-63
2022/04/28 04:52:15;;;;;;;9.02;6.00;;;10.20;1.00;;;11.63;54.15;102217.06;4789007;29;20341;-63
2022/04/28 04:55:16;;;;;;;12.18;6.68;;;10.40;1.00;;;11.86;53.51;102210.88;4791407;29;20206;-64
2022/04/28 04:57:57;;;;;;;8.35;6.55;;;10.60;1.00;;;10.27;56.55;102216.31;4817623;29;20513;-63
2022/04/28 05:00:28;;;;;;;8.25;5.97;;;10.20;1.00;;;9.95;58.33;102217.97;4802600;29;20202;-63
2022/04/28 05:03:16;;;;;;;10.95;7.85;;;9.80;1.00;;;10.23;57.68;102220.38;4788886;30;20190;-63
2022/04/28 05:05:56;;;;;;;12.80;6.68;;;9.60;1.00;;;10.47;57.02;102228.50;4789115;29;20198;-63
2022/04/28 05:08:34;;;;;;;8.80;7.05;;;9.70;1.00;;;9.72;58.66;102227.72;4788302;29;20556;-64
2022/04/28 05:11:08;;;;;;;10.05;6.88;;;9.50;1.00;;;9.88;58.38;102224.19;4817240;29;20617;-64
2022/04/28 05:13:44;;;;;;;14.48;5.90;;;9.50;1.00;;;10.10;58.49;102226.28;4817714;29;20732;-63
2022/04/28 05:16:16;;;;;;;9.45;6.97;;;9.50;1.00;;;10.14;57.62;102227.63;4817565;29;20214;-63
2022/04/28 05:18:50;;;;;;;7.45;6.07;;;9.60;99.90;;;9.61;59.17;102225.31;4817549;29;20227;-64
2022/04/28 05:21:38;;;;;;;10.70;6.70;;;9.50;1.00;;;9.39;60.06;102232.13;4805425;29;20226;-64
2022/04/28 05:24:25;;;;;;;10.70;8.35;;;9.30;1.00;;;9.29;60.75;102228.72;4788839;30;20205;-63
2022/04/28 05:27:14;;;;;;;12.98;10.70;;;9.20;1.00;;;9.30;60.65;102234.94;4788784;30;20240;-63
2022/04/28 05:29:52;;;;;;;12.73;8.35;;;9.20;1.00;;;9.48;60.19;102241.13;4789174;29;20214;-63
2022/04/28 05:32:31;;;;;;;17.10;11.57;;;9.30;1.00;;;9.65;60.11;102237.47;4788370;29;20245;-64
2022/04/28 05:35:20;;;;;;;9.63;7.70;;;9.30;1.00;;;9.84;59.55;102248.00;4788163;29;20210;-63
2022/04/28 05:37:49;;;;;;;11.80;8.43;;;9.40;1.00;;;10.08;59.14;102249.94;4817204;29;20314;-64
2022/04/28 05:40:18;;;;;;;10.25;8.30;;;9.60;2.10;;;10.15;58.57;102244.69;4788590;29;20723;-64
2022/04/28 05:45:43;;;;;;;9.75;7.78;;;9.90;1.00;;;10.42;57.23;102253.38;4788044;29;20214;-63
2022/04/28 05:48:20;;;;;;;8.85;6.93;;;10.10;1.00;;;10.31;57.68;102253.72;4786966;29;20680;-63
2022/04/28 05:50:54;;;;;;;12.80;10.60;;;10.10;1.00;;;10.49;57.02;102250.00;4817115;29;20593;-63
2022/04/28 05:53:23;;;;;;;9.35;7.10;;;10.20;1.00;;;10.44;56.90;102245.09;4816823;29;20279;-64
2022/04/28 05:55:55;;;;;;;12.10;10.07;;;10.20;1.00;;;10.43;57.17;102248.81;4816755;29;20257;-63
2022/04/28 05:58:31;;;;;;;16.02;11.95;;;10.30;1.00;;;10.20;57.56;102259.47;4801385;29;20282;-63
2022/04/28 06:01:23;;;;;;;11.10;9.40;;;10.10;7.40;;;10.35;57.72;102256.94;4794692;29;20244;-62
2022/04/28 06:03:54;;;;;;;8.43;7.05;;;10.20;1.00;;;10.56;57.62;102259.13;4807997;29;20229;-63
2022/04/28 06:06:23;;;;;;;14.93;12.20;;;10.30;1.00;;;10.68;56.91;102258.66;4772767;30;20210;-63
2022/04/28 06:08:56;;;;;;;9.30;6.68;;;10.40;5.50;;;10.73;56.86;102263.53;4793532;29;20191;-63
2022/04/28 06:11:25;;;;;;;7.25;5.75;;;10.50;39.90;;;10.79;56.48;102265.59;4783475;29;20249;-64
2022/04/28 06:13:54;;;;;;;8.95;6.40;;;10.50;19.10;;;10.86;57.00;102266.56;4782915;29;20203;-66
2022/04/28 06:17:01;;;;;;;9.05;7.50;;;10.60;1.00;;;10.94;56.95;102273.88;4803125;29;20205;-65
2022/04/28 06:19:32;;;;;;;8.07;6.95;;;10.70;1.00;;;11.16;56.52;102271.28;4788580;29;20194;-65
2022/04/28 06:22:06;;;;;;;13.10;8.50;;;10.90;1.00;;;11.18;56.41;102271.13;4784653;29;20230;-64
2022/04/28 06:24:53;;;;;;;14.33;9.70;;;11.00;1.00;;;11.36;55.79;102282.56;4783677;29;20444;-65
2022/04/28 06:27:24;;;;;;;9.90;7.20;;;11.10;1.00;;;11.34;55.75;102274.59;4783186;30;20488;-65
2022/04/28 06:29:53;;;;;;;11.27;8.47;;;11.10;1.00;;;11.46;55.85;102283.22;4768038;30;20513;-65
2022/04/28 06:32:23;;;;;;;11.50;7.80;;;11.20;1.00;;;11.68;55.30;102281.59;4782517;29;20563;-67
2022/04/28 06:34:56;;;;;;;12.87;8.10;;;11.40;1.00;;;11.65;55.00;102282.81;4770698;30;20425;-65
2022/04/28 06:37:30;;;;;;;11.00;7.97;;;11.40;1.00;;;11.57;55.67;102282.00;4810607;29;20476;-65
2022/04/28 06:40:03;;;;;;;12.70;7.43;;;11.40;1.00;;;11.75;55.88;102293.50;4779180;29;20923;-65
2022/04/28 06:42:33;;;;;;;15.57;10.80;;;11.50;1.00;;;11.96;55.50;102292.84;4783786;29;20459;-65
2022/04/28 06:45:21;;;;;;;11.83;7.30;;;11.60;1.00;;;12.16;55.08;102288.69;4797364;29;20438;-66
2022/04/28 06:48:02;;;;;;;10.37;7.00;;;11.70;1.00;;;12.27;54.72;102279.28;4793870;29;20953;-65
2022/04/28 06:50:42;;;;;;;15.60;14.13;;;11.80;1.00;;;12.12;54.91;102296.34;4779932;29;20797;-66
2022/04/28 06:53:13;;;;;;;18.00;9.13;;;11.90;1.00;;;12.22;54.95;102295.28;4770052;29;20437;-65
2022/04/28 06:55:45;;;;;;;8.70;7.43;;;11.90;1.00;;;12.56;54.74;102290.28;4778530;30;20447;-65
2022/04/28 06:58:15;;;;;;;8.27;6.10;;;12.10;1.00;;;12.39;54.47;102284.13;4810729;29;20506;-67
2022/04/28 07:00:44;;;;;;;9.20;6.37;;;12.20;1.00;;;12.49;54.65;102292.88;4803389;29;20892;-66
2022/04/28 07:03:13;;;;;;;9.30;6.20;;;12.30;1.00;;;12.95;53.49;102290.97;4786581;29;20444;-66
2022/04/28 07:05:47;;;;;;;8.90;6.13;;;11.00;99.90;;;12.90;53.34;102292.53;4807409;29;20546;-66
2022/04/28 07:08:16;;;;;;;5.50;4.90;;;12.50;1.00;;;12.86;53.27;102291.22;4782944;29;20823;-66
2022/04/28 07:10:47;;;;;;;6.67;5.40;;;12.50;1.00;;;12.77;53.51;102297.75;4776152;29;20441;-66
2022/04/28 07:13:16;;;;;;;8.10;5.00;;;12.50;1.00;;;12.91;53.37;102291.53;4779096;29;20810;-65
2022/04/28 07:16:03;;;;;;;8.87;6.30;;;12.60;1.00;;;13.13;52.69;102293.38;4781385;30;20453;-66
2022/04/28 07:18:50;;;;;;;5.70;4.70;;;12.70;1.00;;;13.38;52.46;102292.09;4786266;30;20595;-65
2022/04/28 07:21:20;;;;;;;8.10;5.60;;;12.90;1.00;;;13.76;51.39;102289.25;4815130;29;20475;-66
2022/04/28 07:23:49;;;;;;;7.20;5.33;;;13.20;1.00;;;13.86;51.67;102287.94;4815253;29;20811;-66
2022/04/28 07:26:18;;;;;;;8.70;5.27;;;13.40;1.00;;;13.85;51.46;102293.56;4815351;29;20448;-65
2022/04/28 07:28:47;;;;;;;7.90;5.20;;;13.50;1.00;;;14.17;49.95;102293.13;4815276;29;20813;-66
2022/04/28 07:31:38;;;;;;;7.57;5.30;;;13.80;1.00;;;14.27;49.98;102299.13;4801761;29;20438;-63
2022/04/28 07:34:13;;;;;;;5.67;5.00;;;13.90;1.00;;;13.98;49.44;102304.63;4786955;29;20427;-63
2022/04/28 07:37:02;;;;;;;5.97;4.40;;;13.90;34.90;;;13.44;50.29;102302.22;4773793;30;20443;-63
2022/04/28 07:39:46;;;;;;;7.40;5.43;;;13.50;53.10;;;13.53;50.09;102305.69;4780594;29;20488;-62
2022/04/28 07:42:18;;;;;;;7.60;5.10;;;13.40;1.00;;;13.48;50.08;102308.97;4787846;29;20464;-63
2022/04/28 07:44:49;;;;;;;9.30;6.23;;;13.30;98.10;;;13.38;50.79;102308.41;4793097;29;20457;-63
2022/04/28 07:47:18;;;;;;;9.10;5.67;;;13.20;1.00;;;13.51;50.20;102302.31;4814490;29;20938;-63
2022/04/28 07:50:07;;;;;;;8.27;5.50;;;13.30;1.00;;;13.74;50.17;102303.06;4813075;29;20456;-63
2022/04/28 07:52:38;;;;;;;11.80;4.90;;;13.40;1.00;;;14.09;49.10;102300.56;4791504;29;20471;-63
2022/04/28 07:55:11;;;;;;;10.83;6.07;;;13.60;1.00;;;14.16;48.97;102296.03;4803799;29;20470;-64
2022/04/28 07:57:41;;;;;;;8.33;3.90;;;13.90;6.50;;;14.00;49.32;102307.13;4787804;29;20448;-63
2022/04/28 08:00:15;;;;;;;7.07;5.40;;;13.80;1.00;;;13.94;48.58;102303.34;4786199;29;20448;-63
2022/04/28 08:02:47;;;;;;;7.07;4.43;;;13.80;5.90;;;14.04;48.48;102294.88;4785557;29;20909;-63
2022/04/28 08:05:19;;;;;;;4.50;3.97;;;13.90;99.90;;;13.88;47.95;102293.19;4780811;29;20456;-62
2022/04/28 08:07:50;;;;;;;10.40;4.80;;;13.80;1.00;;;13.96;47.47;102301.25;4769463;30;20452;-63
2022/04/28 08:10:19;;;;;;;5.03;3.87;;;13.80;1.00;;;13.84;48.11;102309.06;4782163;29;20500;-64
2022/04/28 08:12:48;;;;;;;6.70;5.50;;;13.90;1.00;;;13.98;48.08;102292.91;4795200;24;20492;-67
2022/04/28 08:15:35;;;;;;;6.10;4.90;;;13.80;1.00;;;14.07;47.52;102303.47;4772404;30;20635;-67
2022/04/28 08:18:06;;;;;;;5.33;4.37;;;14.00;1.00;;;13.99;47.69;102300.84;4785746;29;20507;-67
2022/04/28 08:20:36;;;;;;;5.13;4.20;;;14.00;1.00;;;13.91;47.78;102311.84;4775310;30;20464;-66
2022/04/28 08:23:06;;;;;;;3.87;3.47;;;14.00;1.00;;;14.19;48.03;102307.38;4760741;30;20726;-68
2022/04/28 08:25:35;;;;;;;7.20;3.90;;;14.00;1.00;;;14.55;46.98;102310.13;4769576;30;20522;-64
2022/04/28 08:28:04;;;;;;;7.63;4.20;;;14.30;1.00;;;14.60;46.17;102304.09;4770398;30;20800;-67
2022/04/28 08:30:33;;;;;;;6.33;4.70;;;14.50;18.90;;;14.58;46.02;102303.44;4753660;30;20960;-67
2022/04/28 08:33:05;;;;;;;9.27;4.90;;;14.40;7.70;;;14.39;46.71;102295.91;4767035;30;20459;-67
2022/04/28 08:35:33;;;;;;;8.33;4.40;;;14.30;1.00;;;14.78;46.33;102305.31;4767775;30;20865;-67
2022/04/28 08:38:02;;;;;;;4.03;3.63;;;14.70;1.00;;;14.66;45.76;102306.03;4767700;30;20616;-68
2022/04/28 08:40:33;;;;;;;10.50;4.70;;;14.60;1.00;;;14.34;46.57;102305.47;4767873;30;20496;-66
2022/04/28 08:43:07;;;;;;;9.50;4.70;;;14.40;11.00;;;14.64;46.53;102311.69;4767787;30;20568;-67
2022/04/28 08:46:50;;;;;;;7.27;5.20;;;14.50;1.00;;;14.91;46.03;102301.84;4767689;30;20450;-67
2022/04/28 08:48:41;;;;;;;7.17;5.20;;;14.60;1.00;;;15.52;44.74;102299.41;4767357;30;20446;-68
2022/04/28 08:51:18;;;;;;;9.00;4.60;;;15.00;13.50;;;15.78;43.91;102301.44;4767230;30;20456;-67
2022/04/28 08:53:49;;;;;;;7.57;4.20;;;15.40;91.90;;;15.12;45.21;102310.00;4752898;30;20474;-66
2022/04/28 08:56:24;;;;;;;6.63;5.50;;;15.20;9.30;;;15.33;45.43;102308.28;4767981;30;20424;-65
2022/04/28 08:58:57;;;;;;;5.30;4.73;;;15.10;19.30;;;15.73;44.56;102312.97;4768526;30;20456;-67
2022/04/28 09:01:28;;;;;;;4.63;3.90;;;15.30;1.00;;;15.39;44.84;102304.75;4771029;30;20421;-66
2022/04/28 09:04:17;;;;;;;9.13;5.03;;;15.20;1.00;;;15.33;44.31;102303.66;4758895;30;20602;-67
2022/04/28 09:07:09;;;;;;;7.60;4.63;;;15.10;1.00;;;15.34;44.39;102309.97;4779356;29;20521;-66
2022/04/28 09:09:58;;;;;;;7.50;4.53;;;15.10;1.00;;;14.87;45.12;102305.16;4779483;29;20438;-68
2022/04/28 09:14:08;;;;;;;6.03;5.43;;;14.80;1.00;;;14.73;45.34;102309.66;4753497;30;20498;-66
2022/04/28 09:16:01;;;;;;;11.07;5.60;;;14.70;1.00;;;15.15;44.78;102309.59;4751913;30;21051;-66
2022/04/28 09:18:30;;;;;;;7.20;4.70;;;14.90;1.00;;;14.83;44.74;102303.88;4766524;30;20421;-66
2022/04/28 09:20:58;;;;;;;7.17;6.47;;;14.80;1.00;;;14.88;45.14;102313.16;4736611;30;20463;-67
2022/04/28 09:23:27;;;;;;;6.80;5.00;;;14.80;1.00;;;15.15;44.29;102309.59;4748406;30;20855;-67
2022/04/28 09:25:56;;;;;;;6.00;4.90;;;14.90;1.00;;;15.30;44.29;102322.31;4748976;30;20451;-67
2022/04/28 09:28:26;;;;;;;5.37;4.30;;;15.00;1.00;;;15.89;43.06;102312.63;4748633;30;20453;-67
2022/04/28 09:30:58;;;;;;;8.57;5.70;;;15.30;1.00;;;16.33;41.90;102314.03;4748679;30;20535;-67
2022/04/28 09:33:47;;;;;;;7.07;5.20;;;15.70;1.00;;;16.64;40.94;102306.16;4735015;30;20457;-68
2022/04/28 09:36:37;;;;;;;10.00;6.70;;;15.90;1.00;;;16.69;41.09;102303.66;4741890;30;20511;-67
2022/04/28 09:42:29;;;;;;;6.53;5.10;;;16.20;1.00;;;15.92;42.49;102309.50;4774251;30;20536;-69
2022/04/28 09:42:29;;;;;;;7.70;6.37;;;16.00;1.00;;;15.82;42.08;102311.75;4773769;30;20501;-65
2022/04/28 09:45:02;;;;;;;14.33;13.13;;;15.70;1.00;;;15.93;41.92;102308.44;4755519;30;20976;-66
2022/04/28 09:47:38;;;;;;;6.00;5.17;;;15.70;1.00;;;15.92;42.01;102308.66;4745017;30;20894;-67
2022/04/28 09:50:18;;;;;;;7.13;6.43;;;15.70;1.00;;;15.51;42.61;102312.19;4773578;30;20528;-66
2022/04/28 09:53:16;;;;;;;7.57;4.60;;;15.60;1.00;;;15.40;42.99;102318.16;4753649;29;20517;-68
2022/04/28 09:56:07;;;;;;;6.10;4.37;;;15.40;1.00;;;15.53;42.44;102312.84;4744937;30;20511;-67
2022/04/28 09:58:52;;;;;;;5.17;4.67;;;15.40;1.00;;;15.19;42.38;102321.81;4756193;30;20457;-66
2022/04/28 10:01:24;;;;;;;6.10;4.77;;;15.30;1.00;;;14.92;43.32;102309.00;4771541;29;20458;-68
2022/04/28 10:03:53;;;;;;;4.73;4.33;;;15.00;1.00;;;14.85;43.40;102308.09;4748219;30;20478;-66
2022/04/28 10:06:31;;;;;;;10.37;9.27;;;14.80;1.00;;;15.43;42.63;102309.59;4757845;30;20555;-69
2022/04/28 10:09:12;;;;;;;9.83;8.67;;;15.00;1.00;;;16.27;41.08;102298.47;4748546;30;21039;-66
2022/04/28 10:11:48;;;;;;;7.80;5.03;;;15.70;1.00;;;17.21;39.51;102300.06;4748330;30;20523;-68
2022/04/28 10:14:23;;;;;;;7.43;6.20;;;16.30;1.00;;;17.57;38.43;102294.09;4733013;30;20462;-66
2022/04/28 10:16:58;;;;;;;11.20;8.47;;;;;;;16.56;40.13;102298.09;4747688;30;20827;-67
2022/04/28 10:19:36;;;;;;;7.47;5.20;;;16.50;99.90;;;16.31;40.80;102310.69;4747776;30;20940;-66
2022/04/28 10:22:25;;;;;;;7.30;5.80;;;16.20;99.90;;;15.98;41.13;102310.53;4747607;30;20481;-67
2022/04/28 10:34:13;;;;;;;4.80;3.30;;;16.00;5.50;;;17.71;38.23;102309.47;4735903;30;20474;-67
2022/04/28 10:36:55;;;;;;;4.03;3.63;;;16.80;13.60;;;17.50;37.27;102309.69;4752726;30;20800;-66
2022/04/28 10:39:38;;;;;;;5.27;4.70;;;17.10;1.00;;;17.46;37.23;102316.66;4752169;30;20988;-66
2022/04/28 10:42:16;;;;;;;5.90;4.80;;;17.10;21.70;;;17.62;36.80;102318.97;4751642;30;20533;-68
2022/04/28 10:44:55;;;;;;;4.30;3.90;;;17.30;38.70;;;17.77;36.23;102310.50;4765645;30;20428;-65
2022/04/28 10:47:34;;;;;;;6.07;4.10;;;17.30;1.00;;;17.72;36.40;102308.41;4751485;30;20423;-68
2022/04/28 10:50:22;;;;;;;4.87;3.50;;;17.20;1.00;;;17.98;36.80;102303.91;4750870;30;20454;-66
2022/04/28 10:52:55;;;;;;;6.20;4.27;;;17.50;1.00;;;17.88;37.09;102309.81;4750874;30;20435;-67
2022/04/28 10:55:30;;;;;;;4.93;4.17;;;17.70;84.80;;;17.81;37.20;102309.84;4750968;30;20468;-67
2022/04/28 10:58:18;;;;;;;5.93;3.60;;;17.70;57.80;;;17.48;37.67;102302.75;4751242;30;20885;-67
2022/04/28 11:00:53;;;;;;;4.07;3.47;;;17.70;33.80;;;17.00;38.35;102311.22;4751372;30;20507;-65
2022/04/28 11:03:51;;;;;;;4.63;4.10;;;17.10;1.00;;;16.47;38.46;102318.47;4751300;30;20954;-66
2022/04/28 11:06:24;;;;;;;6.57;5.10;;;16.70;1.00;;;16.68;38.66;102318.34;4757973;30;20450;-66
2022/04/28 11:08:56;;;;;;;7.20;3.63;;;16.50;1.00;;;17.18;38.32;102322.38;4751861;30;20476;-68
2022/04/28 11:11:28;;;;;;;6.83;5.30;;;16.70;1.00;;;17.35;38.19;102307.22;4751730;30;20472;-66
2022/04/28 11:13:59;;;;;;;5.90;4.57;;;16.90;1.00;;;17.60;37.01;102301.94;4751006;30;20505;-67
2022/04/28 11:16:29;;;;;;;5.63;3.77;;;17.40;1.00;;;17.64;37.36;102307.81;4751514;30;20507;-68
2022/04/28 11:18:59;;;;;;;7.30;4.73;;;17.30;1.00;;;17.20;38.15;102305.75;4751098;30;20840;-67
2022/04/28 11:21:30;;;;;;;8.23;4.47;;;17.00;1.00;;;16.65;39.29;102310.59;4751030;30;20472;-67